< < Back
Terminal Aerodrome Forecast


Current Version              Previous Versions:   1  2  3  4  5  6  7  8  9  

Terminal Aerodrome Forecast

400
FTUS42 KGSP 241003 AAB
TAFCLT
TAF AMD
KCLT 241003Z 2410/2506 16005KT P6SM SCT030 SCT060
      TEMPO 2410/2413 BKN025
     FM241500 17004KT P6SM SCT050=



Latest METAR

326
SAUS70 KWBC 241800 RRA
MTRCLT
METAR KCLT 241752Z VRB03KT 10SM SCT039 SCT070 BKN250 31/18 A3028 RMK AO2
SLP243 T03060178 10306 20228 58009


USA.gov is the U.S. government's official web portal to all federal, state and local government web resources and services.